KCEY/CEY METAR and TAF weather

Enter ICAO airport designator
Station Type Date Time Source
KCEY METAR 2024/04/18 07:55 UTC NOAA

KCEY 180755Z AUTO 05003KT 10SM CLR 16/16 A3002 RMK A01


Station Type Date Time Source
KCEY Decoded METAR 2024/04/18 07:55 UTC NOAA

Station name not available
Apr 18, 2024 - 03:55 AM EDT / 2024.04.18 0755 UTC
Wind: from the NE (050 degrees) at 3 MPH (3 KT):0
Visibility: 10 mile(s):0
Sky conditions: clear
Temperature: 60 F (16 C)
Dew Point: 60 F (16 C)
Relative Humidity: 100%
Pressure (altimeter): 30.02 in. Hg (1016 hPa)
ob: KCEY 180755Z AUTO 05003KT 10SM CLR 16/16 A3002 RMK A01
cycle: 8

Station Type Date Time Source
KCEY TAF UTC NOAA

Error!

Example: see airport list